createdAt,value
2023-05-07T00:00:29.221Z,88.12
2023-05-07T00:02:56.010Z,88.44
2023-05-07T00:05:22.747Z,88.08
2023-05-07T00:07:50.418Z,88.35
2023-05-07T00:10:17.080Z,88.11
2023-05-07T00:12:44.000Z,87.86
2023-05-07T00:15:11.798Z,87.67
2023-05-07T00:17:39.047Z,87.73
2023-05-07T00:20:06.481Z,87.86
2023-05-07T00:22:33.719Z,88.35
2023-05-07T00:25:00.420Z,87.58
2023-05-07T00:27:27.077Z,88.29
2023-05-07T00:29:53.694Z,88.40
2023-05-07T00:32:20.612Z,88.32
2023-05-07T00:34:47.277Z,87.81
2023-05-07T00:37:13.991Z,88.00
2023-05-07T00:39:40.730Z,88.40
2023-05-07T00:42:07.384Z,88.33
2023-05-07T00:44:34.074Z,87.46
2023-05-07T00:47:04.314Z,87.66
2023-05-07T00:49:39.585Z,87.55
2023-05-07T00:52:08.954Z,87.75
2023-05-07T00:54:36.227Z,87.93
2023-05-07T00:57:04.774Z,87.94
2023-05-07T00:59:33.648Z,88.10
2023-05-07T01:02:00.581Z,88.16
2023-05-07T01:04:27.826Z,88.35
2023-05-07T01:07:00.587Z,87.71
2023-05-07T01:09:28.986Z,87.78
2023-05-07T01:11:57.670Z,88.42
2023-05-07T01:14:24.904Z,87.61
2023-05-07T01:16:54.642Z,87.79
2023-05-07T01:19:21.694Z,88.04
2023-05-07T01:21:49.938Z,87.83
2023-05-07T01:24:17.221Z,87.75
2023-05-07T01:26:45.608Z,87.81
2023-05-07T01:29:12.529Z,87.95
2023-05-07T01:31:42.653Z,87.99
2023-05-07T01:34:12.263Z,87.69
2023-05-07T01:36:41.008Z,87.78
2023-05-07T01:39:08.955Z,88.13
2023-05-07T01:41:36.190Z,87.64
2023-05-07T01:44:05.206Z,87.40
2023-05-07T01:46:32.559Z,87.58
2023-05-07T01:48:59.633Z,87.36
2023-05-07T01:51:27.227Z,88.00
2023-05-07T01:53:54.450Z,87.85
2023-05-07T01:56:21.250Z,87.54
2023-05-07T01:58:48.006Z,87.64
2023-05-07T02:01:15.455Z,87.47
2023-05-07T02:03:42.248Z,87.73
2023-05-07T02:06:09.626Z,87.26
2023-05-07T02:08:37.583Z,87.79
2023-05-07T02:11:04.902Z,86.79
2023-05-07T02:13:33.474Z,87.87
2023-05-07T02:16:00.417Z,86.70
2023-05-07T02:18:27.192Z,86.70
2023-05-07T02:20:53.762Z,87.20
2023-05-07T02:23:20.390Z,87.19
2023-05-07T02:25:48.056Z,87.06
2023-05-07T02:28:14.688Z,87.11
2023-05-07T02:30:41.448Z,87.33
2023-05-07T02:33:09.573Z,86.86
2023-05-07T02:35:36.342Z,87.44
2023-05-07T02:38:03.267Z,86.86
2023-05-07T02:40:29.928Z,86.63
2023-05-07T02:42:56.491Z,86.49
2023-05-07T02:45:23.037Z,86.83
2023-05-07T02:47:49.669Z,86.89
2023-05-07T02:50:16.455Z,86.32
2023-05-07T02:52:43.031Z,86.59
2023-05-07T02:55:09.979Z,86.62
2023-05-07T02:57:36.622Z,86.32
2023-05-07T03:00:12.910Z,86.49
2023-05-07T03:02:39.545Z,86.81
2023-05-07T03:05:06.768Z,86.74
2023-05-07T03:07:36.880Z,85.94
2023-05-07T03:10:04.907Z,86.51
2023-05-07T03:12:32.185Z,86.38
2023-05-07T03:14:58.811Z,86.67
2023-05-07T03:17:25.510Z,87.10
2023-05-07T03:19:52.179Z,86.19
2023-05-07T03:22:18.792Z,86.92
2023-05-07T03:24:45.395Z,86.43
2023-05-07T03:27:12.952Z,86.53
2023-05-07T03:29:40.585Z,86.75
2023-05-07T03:32:10.820Z,86.60
2023-05-07T03:34:37.544Z,86.89
2023-05-07T03:37:04.158Z,86.67
2023-05-07T03:39:31.460Z,86.50
2023-05-07T03:41:58.057Z,86.80
2023-05-07T03:44:24.750Z,87.45
2023-05-07T03:46:52.445Z,86.70
2023-05-07T03:49:19.052Z,87.50
2023-05-07T03:51:45.698Z,87.61
2023-05-07T03:54:12.215Z,87.65
2023-05-07T03:56:38.940Z,86.96
2023-05-07T03:59:05.625Z,87.56
2023-05-07T04:01:32.303Z,87.51
2023-05-07T04:03:59.141Z,86.82
2023-05-07T04:06:25.800Z,86.88
2023-05-07T04:08:52.403Z,87.10
2023-05-07T04:11:19.014Z,87.09
2023-05-07T04:13:45.689Z,87.84
2023-05-07T04:16:13.404Z,87.78
2023-05-07T04:18:40.546Z,86.78
2023-05-07T04:21:07.184Z,86.90
2023-05-07T04:23:33.820Z,87.21
2023-05-07T04:26:00.522Z,87.37
2023-05-07T04:28:27.153Z,87.65
2023-05-07T04:30:53.766Z,87.08
2023-05-07T04:33:20.956Z,86.80
2023-05-07T04:35:47.585Z,86.85
2023-05-07T04:38:14.199Z,87.39
2023-05-07T04:40:41.095Z,87.15
2023-05-07T04:43:08.498Z,86.14
2023-05-07T04:45:35.279Z,86.60
2023-05-07T04:48:02.147Z,86.40
2023-05-07T04:50:28.864Z,85.68
2023-05-07T04:52:55.670Z,86.03
2023-05-07T04:55:23.390Z,84.98
2023-05-07T04:57:49.903Z,85.70
2023-05-07T05:00:17.678Z,85.11
2023-05-07T05:02:44.511Z,84.86
2023-05-07T05:05:11.474Z,84.25
2023-05-07T05:07:38.385Z,84.47
2023-05-07T05:10:06.811Z,83.73
2023-05-07T05:12:33.391Z,82.81
2023-05-07T05:15:00.054Z,82.42
2023-05-07T05:17:27.747Z,80.97
2023-05-07T05:19:54.485Z,80.03
2023-05-07T05:22:22.329Z,78.59
2023-05-07T05:24:48.921Z,78.28
2023-05-07T05:27:15.557Z,78.39
2023-05-07T05:29:44.841Z,76.68
2023-05-07T05:32:11.800Z,76.93
2023-05-07T05:34:38.409Z,76.17
2023-05-07T05:37:07.549Z,75.94
2023-05-07T05:39:34.243Z,75.42
2023-05-07T05:42:00.912Z,75.17
2023-05-07T05:44:27.502Z,75.01
2023-05-07T05:46:56.584Z,74.33
2023-05-07T05:49:23.187Z,72.96
2023-05-07T05:51:49.892Z,72.56
2023-05-07T05:54:16.516Z,73.01
2023-05-07T05:56:43.360Z,72.05
2023-05-07T05:59:10.014Z,72.82
2023-05-07T06:01:36.893Z,73.14
2023-05-07T06:04:03.687Z,72.64
2023-05-07T06:06:30.303Z,72.31
2023-05-07T06:08:56.934Z,71.16
2023-05-07T06:11:23.631Z,70.29
2023-05-07T06:13:50.298Z,71.07
2023-05-07T06:16:17.024Z,70.02
2023-05-07T06:18:43.608Z,70.89
2023-05-07T06:21:11.220Z,70.32
2023-05-07T06:23:38.018Z,71.26
2023-05-07T06:26:04.911Z,70.74
2023-05-07T06:28:36.718Z,69.73
2023-05-07T06:31:14.105Z,70.24
2023-05-07T06:33:41.237Z,69.76
2023-05-07T06:36:08.076Z,70.33
2023-05-07T06:38:34.680Z,68.43
2023-05-07T06:41:01.300Z,68.61
2023-05-07T06:43:27.955Z,67.36
2023-05-07T06:45:54.616Z,67.26
2023-05-07T06:48:21.429Z,67.08
2023-05-07T06:50:48.089Z,66.70
2023-05-07T06:53:14.727Z,66.29
2023-05-07T06:55:42.659Z,65.54
2023-05-07T06:58:09.265Z,64.82
2023-05-07T07:00:36.924Z,65.04
2023-05-07T07:03:03.620Z,64.21
2023-05-07T07:05:30.200Z,64.36
2023-05-07T07:07:56.805Z,64.38
2023-05-07T07:10:23.938Z,63.28
2023-05-07T07:12:51.206Z,63.14
2023-05-07T07:15:17.824Z,64.15
2023-05-07T07:17:44.370Z,62.68
2023-05-07T07:20:12.209Z,61.81
2023-05-07T07:22:39.128Z,63.66
2023-05-07T07:25:06.254Z,63.09
2023-05-07T07:27:32.869Z,62.97
2023-05-07T07:29:59.478Z,62.73
2023-05-07T07:32:26.820Z,61.54
2023-05-07T07:34:54.453Z,62.40
2023-05-07T07:37:21.231Z,61.24
2023-05-07T07:39:47.777Z,60.08
2023-05-07T07:42:14.320Z,60.57
2023-05-07T07:44:41.173Z,60.52
2023-05-07T07:47:10.381Z,59.89
2023-05-07T07:49:39.039Z,59.70
2023-05-07T07:52:05.647Z,60.15
2023-05-07T07:54:33.541Z,59.40
2023-05-07T07:57:00.717Z,58.13
2023-05-07T07:59:27.393Z,58.81
2023-05-07T08:01:56.719Z,58.39
2023-05-07T08:04:23.636Z,56.54
2023-05-07T08:06:50.204Z,56.39
2023-05-07T08:09:17.175Z,56.60
2023-05-07T08:11:43.795Z,57.14
2023-05-07T08:14:11.173Z,54.26
2023-05-07T08:16:37.814Z,54.80
2023-05-07T08:19:04.453Z,54.08
2023-05-07T08:21:33.732Z,53.56
2023-05-07T08:24:01.115Z,54.33
2023-05-07T08:26:27.708Z,54.07
2023-05-07T08:28:54.426Z,53.27
2023-05-07T08:31:21.195Z,52.60
2023-05-07T08:33:48.141Z,52.38
2023-05-07T08:36:14.749Z,52.87
2023-05-07T08:38:43.822Z,52.92
2023-05-07T08:41:12.485Z,52.39
2023-05-07T08:43:41.348Z,52.98
2023-05-07T08:46:10.632Z,53.76
2023-05-07T08:48:37.906Z,52.39
2023-05-07T08:51:04.703Z,50.33
2023-05-07T08:53:31.707Z,50.30
2023-05-07T08:55:58.529Z,50.66
2023-05-07T08:58:25.132Z,51.31
2023-05-07T09:00:54.961Z,51.31
2023-05-07T09:03:21.737Z,51.18
2023-05-07T09:05:48.361Z,51.04
2023-05-07T09:08:17.097Z,51.18
2023-05-07T09:10:45.462Z,50.92
2023-05-07T09:13:14.317Z,52.63
2023-05-07T09:15:41.023Z,50.65
2023-05-07T09:18:08.048Z,51.40
2023-05-07T09:20:34.795Z,51.90
2023-05-07T09:23:01.429Z,51.34
2023-05-07T09:25:35.903Z,50.30
2023-05-07T09:28:04.221Z,49.98
2023-05-07T09:30:32.672Z,49.16
2023-05-07T09:33:00.708Z,50.71
2023-05-07T09:35:30.283Z,50.00
2023-05-07T09:38:03.931Z,50.87
2023-05-07T09:40:32.047Z,50.67
2023-05-07T09:43:10.102Z,50.13
2023-05-07T09:45:38.120Z,49.11
2023-05-07T09:48:06.166Z,49.38
2023-05-07T09:50:45.505Z,49.45
2023-05-07T09:53:14.446Z,50.36
2023-05-07T09:55:41.395Z,50.26
2023-05-07T09:58:08.901Z,50.58
2023-05-07T10:00:37.080Z,50.90
2023-05-07T10:03:04.114Z,50.60
2023-05-07T10:05:31.164Z,51.64
2023-05-07T10:07:58.783Z,52.85
2023-05-07T10:10:26.216Z,52.52
2023-05-07T10:12:53.837Z,52.64
2023-05-07T10:15:20.982Z,53.45
2023-05-07T10:17:49.391Z,52.20
2023-05-07T10:20:16.254Z,49.91
2023-05-07T10:22:45.810Z,49.21
2023-05-07T10:25:19.920Z,50.60
2023-05-07T10:27:48.745Z,49.02
2023-05-07T10:30:16.340Z,47.75
2023-05-07T10:33:07.269Z,48.97
2023-05-07T10:35:42.148Z,47.38
2023-05-07T10:38:09.439Z,48.00
2023-05-07T10:40:36.993Z,47.72
2023-05-07T10:43:10.624Z,48.36
2023-05-07T10:45:37.753Z,48.67
2023-05-07T10:48:28.922Z,48.14
2023-05-07T10:51:19.967Z,46.69
2023-05-07T10:53:46.636Z,45.28
2023-05-07T10:56:19.734Z,48.17
2023-05-07T10:58:46.601Z,46.80
2023-05-07T11:01:14.426Z,46.70
2023-05-07T11:04:16.629Z,47.36
2023-05-07T11:06:43.404Z,45.05
2023-05-07T11:09:09.984Z,45.04
2023-05-07T11:11:48.486Z,46.13
2023-05-07T11:14:35.999Z,45.17
2023-05-07T11:17:04.943Z,44.05
2023-05-07T11:19:54.277Z,46.59
2023-05-07T11:22:38.111Z,46.54
2023-05-07T11:25:07.399Z,45.97
2023-05-07T11:27:34.267Z,45.55
2023-05-07T11:30:02.220Z,45.46
2023-05-07T11:32:33.074Z,45.95
2023-05-07T11:35:01.282Z,46.32
2023-05-07T11:37:30.773Z,46.03
2023-05-07T11:40:06.624Z,46.73
2023-05-07T11:42:35.549Z,46.44
2023-05-07T11:45:02.554Z,45.01
2023-05-07T11:47:32.327Z,45.93
2023-05-07T11:50:04.604Z,44.67
2023-05-07T11:52:31.420Z,44.52
2023-05-07T11:54:59.568Z,43.13
2023-05-07T11:57:27.697Z,44.74
2023-05-07T11:59:58.448Z,45.43
2023-05-07T12:02:26.305Z,44.33
2023-05-07T12:04:53.834Z,44.53
2023-05-07T12:07:20.824Z,43.68
2023-05-07T12:09:48.546Z,43.77
2023-05-07T12:12:18.628Z,43.68
2023-05-07T12:14:46.947Z,43.29
2023-05-07T12:17:15.460Z,42.35
2023-05-07T12:19:44.628Z,43.53
2023-05-07T12:22:15.281Z,42.24
2023-05-07T12:24:44.958Z,42.79
2023-05-07T12:27:12.063Z,41.67
2023-05-07T12:29:41.040Z,42.30
2023-05-07T12:32:08.309Z,41.48
2023-05-07T12:34:35.971Z,41.05
2023-05-07T12:37:04.776Z,42.70
2023-05-07T12:39:31.759Z,43.05
2023-05-07T12:42:00.098Z,42.66
2023-05-07T12:44:31.870Z,40.17
2023-05-07T12:46:59.070Z,39.91
2023-05-07T12:49:26.449Z,40.41
2023-05-07T12:51:54.210Z,40.40
2023-05-07T12:54:35.054Z,40.62
2023-05-07T12:57:07.990Z,40.68
2023-05-07T12:59:39.479Z,39.52
2023-05-07T13:02:10.089Z,39.23
2023-05-07T13:04:37.237Z,39.15
2023-05-07T13:07:04.208Z,38.23
2023-05-07T13:09:32.292Z,38.95
2023-05-07T13:12:04.861Z,40.12
2023-05-07T13:14:34.056Z,39.31
2023-05-07T13:17:00.888Z,39.23
2023-05-07T13:19:29.701Z,38.88
2023-05-07T13:21:58.123Z,38.69
2023-05-07T13:24:24.776Z,39.51
2023-05-07T13:26:52.476Z,38.93
2023-05-07T13:29:19.209Z,39.28
2023-05-07T13:31:47.732Z,38.28
2023-05-07T13:34:15.172Z,37.51
2023-05-07T13:36:43.948Z,38.34
2023-05-07T13:39:10.894Z,38.12
2023-05-07T13:41:37.541Z,37.87
2023-05-07T13:44:05.511Z,38.63
2023-05-07T13:46:32.172Z,37.65
2023-05-07T13:48:58.839Z,37.39
2023-05-07T13:51:25.678Z,37.46
2023-05-07T13:53:53.577Z,37.00
2023-05-07T13:56:21.215Z,38.36
2023-05-07T13:58:58.870Z,38.07
2023-05-07T14:01:26.805Z,38.19
2023-05-07T14:03:53.684Z,38.72
2023-05-07T14:06:20.738Z,37.38
2023-05-07T14:08:47.456Z,38.68
2023-05-07T14:11:14.234Z,37.72
2023-05-07T14:13:41.119Z,35.79
2023-05-07T14:16:07.877Z,36.68
2023-05-07T14:18:35.472Z,37.11
2023-05-07T14:21:03.730Z,36.64
2023-05-07T14:23:30.454Z,35.63
2023-05-07T14:25:59.126Z,36.92
2023-05-07T14:28:25.712Z,36.94
2023-05-07T14:30:52.517Z,35.44
2023-05-07T14:33:19.107Z,34.67
2023-05-07T14:35:49.715Z,35.48
2023-05-07T14:38:16.705Z,35.02
2023-05-07T14:40:43.599Z,35.54
2023-05-07T14:43:10.126Z,36.42
2023-05-07T14:45:36.738Z,34.75
2023-05-07T14:48:03.894Z,35.51
2023-05-07T14:50:30.972Z,36.16
2023-05-07T14:53:01.743Z,35.59
2023-05-07T14:55:33.497Z,34.84
2023-05-07T14:58:02.096Z,35.66
2023-05-07T15:00:29.421Z,36.61
2023-05-07T15:03:06.757Z,36.69
2023-05-07T15:05:33.776Z,35.38
2023-05-07T15:08:01.440Z,36.70
2023-05-07T15:10:28.198Z,35.87
2023-05-07T15:12:54.803Z,35.96
2023-05-07T15:15:21.642Z,35.85
2023-05-07T15:17:48.450Z,36.34
2023-05-07T15:20:18.681Z,36.66
2023-05-07T15:22:45.609Z,36.36
2023-05-07T15:25:12.881Z,35.98
2023-05-07T15:27:39.831Z,36.39
2023-05-07T15:30:07.123Z,36.72
2023-05-07T15:32:33.933Z,37.18
2023-05-07T15:35:00.555Z,36.82
2023-05-07T15:37:27.260Z,36.60
2023-05-07T15:39:54.864Z,36.80
2023-05-07T15:42:21.624Z,37.31
2023-05-07T15:44:49.246Z,36.88
2023-05-07T15:47:16.355Z,36.93
2023-05-07T15:49:43.465Z,37.04
2023-05-07T15:52:14.787Z,37.14
2023-05-07T15:54:41.387Z,37.88
2023-05-07T15:57:09.910Z,37.63
2023-05-07T15:59:36.462Z,38.46
2023-05-07T16:02:05.662Z,38.48
2023-05-07T16:04:33.328Z,38.93
2023-05-07T16:06:59.945Z,38.69
2023-05-07T16:09:28.946Z,38.65
2023-05-07T16:11:56.309Z,38.53
2023-05-07T16:14:24.361Z,39.10
2023-05-07T16:16:50.970Z,38.38
2023-05-07T16:19:17.931Z,38.69
2023-05-07T16:21:44.597Z,39.43
2023-05-07T16:24:11.235Z,39.04
2023-05-07T16:26:37.939Z,39.09
2023-05-07T16:29:06.919Z,39.46
2023-05-07T16:31:33.892Z,39.42
2023-05-07T16:34:01.171Z,39.94
2023-05-07T16:36:29.220Z,39.29
2023-05-07T16:38:56.806Z,39.82
2023-05-07T16:41:23.729Z,39.93
2023-05-07T16:43:50.549Z,40.44
2023-05-07T16:46:17.346Z,40.61
2023-05-07T16:48:45.277Z,39.84
2023-05-07T16:51:12.171Z,40.42
2023-05-07T16:53:40.947Z,40.51
2023-05-07T16:56:07.844Z,40.43
2023-05-07T16:58:34.751Z,40.34
2023-05-07T17:01:02.627Z,40.77
2023-05-07T17:03:32.251Z,40.98
2023-05-07T17:05:59.025Z,40.89
2023-05-07T17:08:26.087Z,40.95
2023-05-07T17:10:52.739Z,41.32
2023-05-07T17:13:20.548Z,41.39
2023-05-07T17:15:47.781Z,41.21
2023-05-07T17:18:14.924Z,41.56
2023-05-07T17:20:42.186Z,41.50
2023-05-07T17:23:08.953Z,42.18
2023-05-07T17:25:37.130Z,42.53
2023-05-07T17:28:03.937Z,42.95
2023-05-07T17:30:30.730Z,43.20
2023-05-07T17:33:06.294Z,43.24
2023-05-07T17:35:39.949Z,43.03
2023-05-07T17:38:07.653Z,43.21
2023-05-07T17:40:35.358Z,43.50
2023-05-07T17:43:02.033Z,43.78
2023-05-07T17:45:28.837Z,43.69
2023-05-07T17:47:55.563Z,43.93
2023-05-07T17:50:23.480Z,44.14
2023-05-07T17:52:50.276Z,44.16
2023-05-07T17:55:17.023Z,44.24
2023-05-07T17:57:54.045Z,44.68
2023-05-07T18:00:21.410Z,45.22
2023-05-07T18:02:48.012Z,45.56
2023-05-07T18:05:14.680Z,45.75
2023-05-07T18:07:41.303Z,46.26
2023-05-07T18:10:08.326Z,46.71
2023-05-07T18:12:35.803Z,47.03
2023-05-07T18:15:05.471Z,47.41
2023-05-07T18:17:32.181Z,48.01
2023-05-07T18:19:58.813Z,48.27
2023-05-07T18:22:25.395Z,48.49
2023-05-07T18:24:52.402Z,48.30
2023-05-07T18:27:18.945Z,48.67
2023-05-07T18:29:46.569Z,48.91
2023-05-07T18:32:13.964Z,48.89
2023-05-07T18:34:41.344Z,48.96
2023-05-07T18:37:08.093Z,48.97
2023-05-07T18:39:35.682Z,49.38
2023-05-07T18:42:05.115Z,49.34
2023-05-07T18:44:33.330Z,49.72
2023-05-07T18:47:00.080Z,49.71
2023-05-07T18:49:26.857Z,50.00
2023-05-07T18:51:53.438Z,50.34
2023-05-07T18:54:20.306Z,50.44
2023-05-07T18:56:47.001Z,50.59
2023-05-07T18:59:13.603Z,50.72
2023-05-07T19:01:40.428Z,50.77
2023-05-07T19:04:08.068Z,51.00
2023-05-07T19:06:35.164Z,51.14
2023-05-07T19:09:01.912Z,51.60
2023-05-07T19:11:28.531Z,52.02
2023-05-07T19:13:55.162Z,52.12
2023-05-07T19:16:21.955Z,52.60
2023-05-07T19:18:49.681Z,52.64
2023-05-07T19:21:16.347Z,52.90
2023-05-07T19:23:43.082Z,53.24
2023-05-07T19:26:10.522Z,53.24
2023-05-07T19:28:38.458Z,53.65
2023-05-07T19:31:05.793Z,53.72
2023-05-07T19:33:32.633Z,53.99
2023-05-07T19:36:01.021Z,54.22
2023-05-07T19:38:28.362Z,54.63
2023-05-07T19:40:55.463Z,54.67
2023-05-07T19:43:22.058Z,55.02
2023-05-07T19:45:52.432Z,55.30
2023-05-07T19:48:20.911Z,55.63
2023-05-07T19:50:48.283Z,55.68
2023-05-07T19:53:15.128Z,56.11
2023-05-07T19:55:41.936Z,56.42
2023-05-07T19:58:08.629Z,56.73
2023-05-07T20:00:35.587Z,56.58
2023-05-07T20:03:02.402Z,56.93
2023-05-07T20:05:28.995Z,57.26
2023-05-07T20:07:55.953Z,57.73
2023-05-07T20:10:22.831Z,57.95
2023-05-07T20:12:49.551Z,57.86
2023-05-07T20:15:16.420Z,58.08
2023-05-07T20:17:44.583Z,58.67
2023-05-07T20:20:12.558Z,58.45
2023-05-07T20:22:39.479Z,59.08
2023-05-07T20:25:07.750Z,59.36
2023-05-07T20:27:35.229Z,60.10
2023-05-07T20:30:01.931Z,60.42
2023-05-07T20:32:28.635Z,59.92
2023-05-07T20:34:55.776Z,60.66
2023-05-07T20:37:22.474Z,61.03
2023-05-07T20:39:49.120Z,60.60
2023-05-07T20:42:17.389Z,61.22
2023-05-07T20:44:43.927Z,61.27
2023-05-07T20:47:10.569Z,61.50
2023-05-07T20:49:38.199Z,61.83
2023-05-07T20:52:05.473Z,61.74
2023-05-07T20:54:32.082Z,61.75
2023-05-07T20:57:00.214Z,62.32
2023-05-07T20:59:28.874Z,62.11
2023-05-07T21:01:56.794Z,62.72
2023-05-07T21:04:23.334Z,61.95
2023-05-07T21:06:49.971Z,62.33
2023-05-07T21:09:16.592Z,62.67
2023-05-07T21:11:43.194Z,63.27
2023-05-07T21:14:09.836Z,63.47
2023-05-07T21:16:36.704Z,63.23
2023-05-07T21:19:03.905Z,63.05
2023-05-07T21:21:31.690Z,63.37
2023-05-07T21:23:58.545Z,64.00
2023-05-07T21:26:25.299Z,64.36
2023-05-07T21:28:52.149Z,64.56
2023-05-07T21:31:19.690Z,64.74
2023-05-07T21:33:46.543Z,64.93
2023-05-07T21:36:13.210Z,64.58
2023-05-07T21:38:40.405Z,64.82
2023-05-07T21:41:07.175Z,65.72
2023-05-07T21:43:33.833Z,66.02
2023-05-07T21:46:00.700Z,66.89
2023-05-07T21:48:27.389Z,66.45
2023-05-07T21:51:07.972Z,66.53
2023-05-07T21:53:35.298Z,67.22
2023-05-07T21:56:05.160Z,66.78
2023-05-07T21:58:32.276Z,67.21
2023-05-07T22:01:00.232Z,67.80
2023-05-07T22:03:27.148Z,67.21
2023-05-07T22:05:53.710Z,67.22
2023-05-07T22:08:20.440Z,67.42
2023-05-07T22:10:48.164Z,68.01
2023-05-07T22:13:14.999Z,68.06
2023-05-07T22:15:49.557Z,68.41
2023-05-07T22:18:23.220Z,68.14
2023-05-07T22:20:51.772Z,68.22
2023-05-07T22:23:18.410Z,68.13
2023-05-07T22:25:45.028Z,68.30
2023-05-07T22:28:11.638Z,68.52
2023-05-07T22:30:38.448Z,68.55
2023-05-07T22:33:05.120Z,69.16
2023-05-07T22:35:31.817Z,69.28
2023-05-07T22:37:58.570Z,69.41
2023-05-07T22:40:25.606Z,69.68
2023-05-07T22:42:52.606Z,70.29
2023-05-07T22:45:19.212Z,70.71
2023-05-07T22:47:45.816Z,71.08
2023-05-07T22:50:13.067Z,71.16
2023-05-07T22:52:39.987Z,71.00
2023-05-07T22:55:07.181Z,71.52
2023-05-07T22:57:33.720Z,72.16
2023-05-07T23:00:00.377Z,72.08
2023-05-07T23:02:29.169Z,72.19
2023-05-07T23:04:59.319Z,72.04
2023-05-07T23:07:26.187Z,71.74
2023-05-07T23:09:52.814Z,71.69
2023-05-07T23:12:19.773Z,72.48
2023-05-07T23:14:46.421Z,72.81
2023-05-07T23:17:14.134Z,73.74
2023-05-07T23:19:42.091Z,73.46
2023-05-07T23:22:10.198Z,73.93
2023-05-07T23:24:36.960Z,73.54
2023-05-07T23:27:07.298Z,73.85
2023-05-07T23:29:34.750Z,73.19
2023-05-07T23:32:02.433Z,73.88
2023-05-07T23:34:30.136Z,75.07
2023-05-07T23:36:56.725Z,74.41
2023-05-07T23:39:23.392Z,74.54
2023-05-07T23:41:49.955Z,74.72
2023-05-07T23:44:16.713Z,75.33
2023-05-07T23:46:44.506Z,75.54
2023-05-07T23:49:11.435Z,75.59
2023-05-07T23:51:38.126Z,75.79
2023-05-07T23:54:05.101Z,75.52
2023-05-07T23:56:31.919Z,75.63
2023-05-07T23:58:58.657Z,75.88
